sensor_id;sensor_type;location;lat;lon;timestamp;pressure;altitude;pressure_sealevel;temperature;humidity
70254;BME280;57649;42.968;1.608;2023-02-18T00:00:15;98703.75;;;4.72;82.42
70254;BME280;57649;42.968;1.608;2023-02-18T00:02:43;98699.69;;;4.67;82.48
70254;BME280;57649;42.968;1.608;2023-02-18T00:05:09;98702.66;;;4.62;82.30
70254;BME280;57649;42.968;1.608;2023-02-18T00:07:35;98702.34;;;4.67;81.85
70254;BME280;57649;42.968;1.608;2023-02-18T00:10:03;98700.91;;;4.75;81.51
70254;BME280;57649;42.968;1.608;2023-02-18T00:12:30;98693.97;;;4.60;82.32
70254;BME280;57649;42.968;1.608;2023-02-18T00:14:55;98696.03;;;4.69;82.13
70254;BME280;57649;42.968;1.608;2023-02-18T00:17:21;98692.41;;;4.70;81.70
70254;BME280;57649;42.968;1.608;2023-02-18T00:19:46;98700.91;;;4.75;81.35
70254;BME280;57649;42.968;1.608;2023-02-18T00:22:12;98690.56;;;4.58;81.79
70254;BME280;57649;42.968;1.608;2023-02-18T00:24:37;98700.50;;;4.54;82.38
70254;BME280;57649;42.968;1.608;2023-02-18T00:27:03;98691.13;;;4.49;82.98
70254;BME280;57649;42.968;1.608;2023-02-18T00:29:28;98699.94;;;4.49;82.68
70254;BME280;57649;42.968;1.608;2023-02-18T00:31:54;98690.94;;;4.52;81.26
70254;BME280;57649;42.968;1.608;2023-02-18T00:34:20;98695.66;;;4.61;80.46
70254;BME280;57649;42.968;1.608;2023-02-18T00:36:45;98690.34;;;4.61;80.82
70254;BME280;57649;42.968;1.608;2023-02-18T00:39:11;98686.94;;;4.59;81.51
70254;BME280;57649;42.968;1.608;2023-02-18T00:41:37;98681.81;;;4.56;81.39
70254;BME280;57649;42.968;1.608;2023-02-18T00:44:03;98695.88;;;4.58;80.94
70254;BME280;57649;42.968;1.608;2023-02-18T00:46:29;98682.41;;;4.47;81.11
70254;BME280;57649;42.968;1.608;2023-02-18T00:48:55;98679.97;;;4.43;81.83
70254;BME280;57649;42.968;1.608;2023-02-18T00:51:21;98680.06;;;4.42;81.99
70254;BME280;57649;42.968;1.608;2023-02-18T00:53:47;98676.69;;;4.40;81.87
70254;BME280;57649;42.968;1.608;2023-02-18T00:56:13;98675.53;;;4.30;82.23
70254;BME280;57649;42.968;1.608;2023-02-18T00:58:39;98684.00;;;4.22;82.75
70254;BME280;57649;42.968;1.608;2023-02-18T01:01:05;98673.22;;;3.96;84.41
70254;BME280;57649;42.968;1.608;2023-02-18T01:03:31;98681.00;;;3.85;84.51
70254;BME280;57649;42.968;1.608;2023-02-18T01:05:56;98689.13;;;3.96;84.13
70254;BME280;57649;42.968;1.608;2023-02-18T01:08:22;98681.25;;;3.95;84.53
70254;BME280;57649;42.968;1.608;2023-02-18T01:10:51;98682.09;;;3.95;84.96
70254;BME280;57649;42.968;1.608;2023-02-18T01:13:17;98687.97;;;4.00;84.93
70254;BME280;57649;42.968;1.608;2023-02-18T01:15:42;98687.72;;;4.05;84.77
70254;BME280;57649;42.968;1.608;2023-02-18T01:18:08;98692.03;;;4.06;84.62
70254;BME280;57649;42.968;1.608;2023-02-18T01:20:35;98689.69;;;4.16;83.09
70254;BME280;57649;42.968;1.608;2023-02-18T01:23:01;98687.78;;;4.18;82.44
70254;BME280;57649;42.968;1.608;2023-02-18T01:25:27;98682.75;;;4.13;81.78
70254;BME280;57649;42.968;1.608;2023-02-18T01:27:52;98681.25;;;4.09;82.00
70254;BME280;57649;42.968;1.608;2023-02-18T01:30:18;98682.28;;;4.07;82.54
70254;BME280;57649;42.968;1.608;2023-02-18T01:32:45;98674.91;;;3.97;82.55
70254;BME280;57649;42.968;1.608;2023-02-18T01:35:15;98678.03;;;3.90;83.16
70254;BME280;57649;42.968;1.608;2023-02-18T01:37:41;98681.16;;;3.82;83.14
70254;BME280;57649;42.968;1.608;2023-02-18T01:40:08;98677.28;;;3.88;83.48
70254;BME280;57649;42.968;1.608;2023-02-18T01:42:34;98684.47;;;3.85;84.17
70254;BME280;57649;42.968;1.608;2023-02-18T01:48:02;98678.41;;;3.69;85.88
70254;BME280;57649;42.968;1.608;2023-02-18T01:50:30;98686.63;;;3.64;85.98
70254;BME280;57649;42.968;1.608;2023-02-18T01:52:57;98679.56;;;3.65;85.29
70254;BME280;57649;42.968;1.608;2023-02-18T01:55:23;98672.81;;;3.45;85.24
70254;BME280;57649;42.968;1.608;2023-02-18T01:57:48;98678.78;;;3.49;85.53
70254;BME280;57649;42.968;1.608;2023-02-18T02:00:16;98657.22;;;3.55;85.52
70254;BME280;57649;42.968;1.608;2023-02-18T02:02:47;98668.47;;;3.58;84.48
70254;BME280;57649;42.968;1.608;2023-02-18T02:05:13;98663.84;;;3.62;84.29
70254;BME280;57649;42.968;1.608;2023-02-18T02:07:40;98662.91;;;3.63;84.08
70254;BME280;57649;42.968;1.608;2023-02-18T02:10:07;98655.81;;;3.63;83.81
70254;BME280;57649;42.968;1.608;2023-02-18T02:13:00;98659.94;;;3.53;84.19
70254;BME280;57649;42.968;1.608;2023-02-18T02:30:10;98650.34;;;3.66;83.72
70254;BME280;57649;42.968;1.608;2023-02-18T02:38:18;98648.25;;;3.57;82.85
70254;BME280;57649;42.968;1.608;2023-02-18T02:46:20;98635.38;;;3.51;83.96
70254;BME280;57649;42.968;1.608;2023-02-18T02:51:40;98633.78;;;3.49;83.67
70254;BME280;57649;42.968;1.608;2023-02-18T02:54:14;98623.06;;;3.36;83.82
70254;BME280;57649;42.968;1.608;2023-02-18T02:56:40;98632.81;;;3.35;84.47
70254;BME280;57649;42.968;1.608;2023-02-18T02:59:09;98625.53;;;3.24;85.27
70254;BME280;57649;42.968;1.608;2023-02-18T03:02:03;98631.53;;;3.12;85.73
70254;BME280;57649;42.968;1.608;2023-02-18T03:10:27;98623.66;;;3.41;83.94
70254;BME280;57649;42.968;1.608;2023-02-18T03:21:13;98620.03;;;3.42;83.95
70254;BME280;57649;42.968;1.608;2023-02-18T03:23:50;98621.56;;;3.32;84.30
70254;BME280;57649;42.968;1.608;2023-02-18T03:26:18;98618.25;;;3.28;84.11
70254;BME280;57649;42.968;1.608;2023-02-18T03:28:48;98619.09;;;3.28;84.12
70254;BME280;57649;42.968;1.608;2023-02-18T03:31:17;98614.28;;;3.35;83.04
70254;BME280;57649;42.968;1.608;2023-02-18T03:33:49;98601.50;;;3.27;82.73
70254;BME280;57649;42.968;1.608;2023-02-18T03:36:18;98609.94;;;3.34;83.11
70254;BME280;57649;42.968;1.608;2023-02-18T03:38:55;98610.00;;;3.18;83.22
70254;BME280;57649;42.968;1.608;2023-02-18T03:41:23;98602.25;;;3.15;83.85
70254;BME280;57649;42.968;1.608;2023-02-18T03:43:53;98611.41;;;3.24;83.73
70254;BME280;57649;42.968;1.608;2023-02-18T03:46:20;98609.63;;;3.10;84.24
70254;BME280;57649;42.968;1.608;2023-02-18T03:48:46;98605.34;;;3.07;84.95
70254;BME280;57649;42.968;1.608;2023-02-18T03:51:12;98609.88;;;3.05;84.30
70254;BME280;57649;42.968;1.608;2023-02-18T03:53:37;98612.22;;;2.96;84.48
70254;BME280;57649;42.968;1.608;2023-02-18T03:56:03;98612.41;;;2.93;85.25
70254;BME280;57649;42.968;1.608;2023-02-18T03:58:28;98607.69;;;2.98;84.94
70254;BME280;57649;42.968;1.608;2023-02-18T04:00:54;98609.84;;;2.91;85.33
70254;BME280;57649;42.968;1.608;2023-02-18T04:03:19;98609.16;;;2.87;85.81
70254;BME280;57649;42.968;1.608;2023-02-18T04:05:45;98621.09;;;2.64;86.69
70254;BME280;57649;42.968;1.608;2023-02-18T04:08:12;98620.69;;;2.56;88.00
70254;BME280;57649;42.968;1.608;2023-02-18T04:10:37;98621.03;;;2.66;88.13
70254;BME280;57649;42.968;1.608;2023-02-18T04:13:03;98620.81;;;2.69;88.09
70254;BME280;57649;42.968;1.608;2023-02-18T04:15:29;98616.41;;;2.69;87.85
70254;BME280;57649;42.968;1.608;2023-02-18T04:17:55;98616.50;;;2.68;87.83
70254;BME280;57649;42.968;1.608;2023-02-18T04:20:20;98608.19;;;2.74;86.56
70254;BME280;57649;42.968;1.608;2023-02-18T04:22:47;98617.56;;;2.80;86.17
70254;BME280;57649;42.968;1.608;2023-02-18T04:25:12;98612.78;;;2.86;85.57
70254;BME280;57649;42.968;1.608;2023-02-18T04:27:38;98615.13;;;2.77;86.52
70254;BME280;57649;42.968;1.608;2023-02-18T04:30:04;98614.69;;;2.68;87.39
70254;BME280;57649;42.968;1.608;2023-02-18T04:32:30;98616.22;;;2.73;87.50
70254;BME280;57649;42.968;1.608;2023-02-18T04:34:55;98615.53;;;2.69;87.62
70254;BME280;57649;42.968;1.608;2023-02-18T04:37:21;98610.66;;;2.77;86.72
70254;BME280;57649;42.968;1.608;2023-02-18T04:39:46;98616.88;;;2.76;86.47
70254;BME280;57649;42.968;1.608;2023-02-18T04:42:11;98614.25;;;2.76;85.77
70254;BME280;57649;42.968;1.608;2023-02-18T04:44:37;98616.50;;;2.68;87.62
70254;BME280;57649;42.968;1.608;2023-02-18T04:47:04;98606.13;;;2.79;86.86
70254;BME280;57649;42.968;1.608;2023-02-18T04:49:30;98605.84;;;2.69;87.06
70254;BME280;57649;42.968;1.608;2023-02-18T04:51:55;98616.06;;;2.60;87.84
70254;BME280;57649;42.968;1.608;2023-02-18T04:54:21;98612.03;;;2.68;87.21
70254;BME280;57649;42.968;1.608;2023-02-18T04:56:46;98602.91;;;2.74;85.84
70254;BME280;57649;42.968;1.608;2023-02-18T04:59:12;98612.63;;;2.74;85.90
70254;BME280;57649;42.968;1.608;2023-02-18T05:01:37;98621.88;;;2.66;86.15
70254;BME280;57649;42.968;1.608;2023-02-18T05:04:03;98619.16;;;2.52;86.98
70254;BME280;57649;42.968;1.608;2023-02-18T05:06:28;98620.59;;;2.58;86.56
70254;BME280;57649;42.968;1.608;2023-02-18T05:08:54;98620.59;;;2.58;87.39
70254;BME280;57649;42.968;1.608;2023-02-18T05:11:19;98624.91;;;2.75;86.71
70254;BME280;57649;42.968;1.608;2023-02-18T05:13:45;98623.31;;;2.72;87.43
70254;BME280;57649;42.968;1.608;2023-02-18T05:16:10;98623.75;;;2.64;87.34
70254;BME280;57649;42.968;1.608;2023-02-18T05:18:36;98618.75;;;2.44;87.63
70254;BME280;57649;42.968;1.608;2023-02-18T05:21:01;98610.91;;;2.42;88.43
70254;BME280;57649;42.968;1.608;2023-02-18T05:23:27;98608.00;;;2.47;87.88
70254;BME280;57649;42.968;1.608;2023-02-18T05:25:53;98611.66;;;2.44;87.30
70254;BME280;57649;42.968;1.608;2023-02-18T05:28:19;98616.88;;;2.46;87.60
70254;BME280;57649;42.968;1.608;2023-02-18T05:30:44;98621.94;;;2.65;85.80
70254;BME280;57649;42.968;1.608;2023-02-18T05:33:09;98614.00;;;2.65;85.87
70254;BME280;57649;42.968;1.608;2023-02-18T05:35:36;98614.81;;;2.51;86.09
70254;BME280;57649;42.968;1.608;2023-02-18T05:38:02;98610.97;;;2.57;86.84
70254;BME280;57649;42.968;1.608;2023-02-18T05:40:27;98610.53;;;2.64;86.08
70254;BME280;57649;42.968;1.608;2023-02-18T05:42:53;98602.91;;;2.74;85.03
70254;BME280;57649;42.968;1.608;2023-02-18T05:45:18;98606.59;;;2.72;85.43
70254;BME280;57649;42.968;1.608;2023-02-18T05:47:43;98609.31;;;2.70;84.57
70254;BME280;57649;42.968;1.608;2023-02-18T05:50:09;98606.69;;;2.70;84.16
70254;BME280;57649;42.968;1.608;2023-02-18T05:52:35;98604.97;;;2.69;84.01
70254;BME280;57649;42.968;1.608;2023-02-18T05:55:00;98601.50;;;2.53;86.15
70254;BME280;57649;42.968;1.608;2023-02-18T05:57:25;98604.72;;;2.58;86.20
70254;BME280;57649;42.968;1.608;2023-02-18T05:59:51;98607.03;;;2.64;85.84
70254;BME280;57649;42.968;1.608;2023-02-18T06:02:16;98613.03;;;2.52;85.56
70254;BME280;57649;42.968;1.608;2023-02-18T06:04:42;98602.38;;;2.53;86.34
70254;BME280;57649;42.968;1.608;2023-02-18T06:07:07;98608.91;;;2.62;85.71
70254;BME280;57649;42.968;1.608;2023-02-18T06:09:33;98604.78;;;2.72;84.89
70254;BME280;57649;42.968;1.608;2023-02-18T06:11:58;98606.50;;;2.73;84.71
70254;BME280;57649;42.968;1.608;2023-02-18T06:14:24;98602.44;;;2.67;85.02
70254;BME280;57649;42.968;1.608;2023-02-18T06:16:49;98588.41;;;2.65;84.90
70254;BME280;57649;42.968;1.608;2023-02-18T06:19:15;98592.84;;;2.81;83.73
70254;BME280;57649;42.968;1.608;2023-02-18T06:21:40;98595.13;;;2.71;84.31
70254;BME280;57649;42.968;1.608;2023-02-18T06:24:06;98601.78;;;2.78;84.33
70254;BME280;57649;42.968;1.608;2023-02-18T06:26:32;98602.94;;;2.88;85.59
70254;BME280;57649;42.968;1.608;2023-02-18T06:28:58;98600.13;;;2.92;86.36
70254;BME280;57649;42.968;1.608;2023-02-18T06:31:23;98601.53;;;2.83;86.33
70254;BME280;57649;42.968;1.608;2023-02-18T06:33:49;98605.22;;;2.80;86.19
70254;BME280;57649;42.968;1.608;2023-02-18T06:36:14;98607.56;;;2.55;87.59
70254;BME280;57649;42.968;1.608;2023-02-18T06:38:42;98602.59;;;2.64;86.98
70254;BME280;57649;42.968;1.608;2023-02-18T06:41:08;98592.78;;;2.66;85.41
70254;BME280;57649;42.968;1.608;2023-02-18T06:43:34;98598.78;;;2.84;84.17
70254;BME280;57649;42.968;1.608;2023-02-18T06:46:00;98591.63;;;2.86;83.09
70254;BME280;57649;42.968;1.608;2023-02-18T06:48:25;98597.44;;;2.77;83.03
70254;BME280;57649;42.968;1.608;2023-02-18T06:50:51;98596.25;;;2.67;85.20
70254;BME280;57649;42.968;1.608;2023-02-18T06:53:17;98604.47;;;2.62;86.00
70254;BME280;57649;42.968;1.608;2023-02-18T06:55:43;98598.53;;;2.59;86.87
70254;BME280;57649;42.968;1.608;2023-02-18T06:58:10;98603.22;;;2.54;86.48
70254;BME280;57649;42.968;1.608;2023-02-18T07:00:35;98601.47;;;2.68;85.79
70254;BME280;57649;42.968;1.608;2023-02-18T07:03:01;98605.41;;;2.61;84.69
70254;BME280;57649;42.968;1.608;2023-02-18T07:05:26;98598.66;;;2.72;83.63
70254;BME280;57649;42.968;1.608;2023-02-18T07:07:52;98604.41;;;2.78;82.99
70254;BME280;57649;42.968;1.608;2023-02-18T07:10:18;98604.09;;;2.84;82.48
70254;BME280;57649;42.968;1.608;2023-02-18T07:12:43;98604.22;;;2.97;81.71
70254;BME280;57649;42.968;1.608;2023-02-18T07:15:09;98612.31;;;2.94;81.66
70254;BME280;57649;42.968;1.608;2023-02-18T07:17:34;98612.41;;;2.93;82.75
70254;BME280;57649;42.968;1.608;2023-02-18T07:20:00;98613.16;;;2.80;83.51
70254;BME280;57649;42.968;1.608;2023-02-18T07:22:26;98620.28;;;2.78;83.59
70254;BME280;57649;42.968;1.608;2023-02-18T07:24:52;98612.41;;;2.93;82.93
70254;BME280;57649;42.968;1.608;2023-02-18T07:27:18;98613.47;;;3.04;82.55
70254;BME280;57649;42.968;1.608;2023-02-18T07:29:43;98618.50;;;3.09;81.89
70254;BME280;57649;42.968;1.608;2023-02-18T07:32:11;98624.25;;;3.01;81.53
70254;BME280;57649;42.968;1.608;2023-02-18T07:34:37;98615.00;;;3.08;81.39
70254;BME280;57649;42.968;1.608;2023-02-18T07:37:02;98609.41;;;3.13;81.56
70254;BME280;57649;42.968;1.608;2023-02-18T07:39:38;98612.06;;;3.13;81.92
70254;BME280;57649;42.968;1.608;2023-02-18T07:42:04;98614.19;;;3.22;82.02
70254;BME280;57649;42.968;1.608;2023-02-18T07:44:30;98614.94;;;3.24;81.29
70254;BME280;57649;42.968;1.608;2023-02-18T07:46:55;98611.91;;;3.31;80.87
70254;BME280;57649;42.968;1.608;2023-02-18T07:49:21;98604.75;;;3.47;79.68
70254;BME280;57649;42.968;1.608;2023-02-18T07:51:48;98613.25;;;3.52;79.47
70254;BME280;57649;42.968;1.608;2023-02-18T07:54:13;98619.31;;;3.54;79.39
70254;BME280;57649;42.968;1.608;2023-02-18T07:56:39;98612.03;;;3.72;77.94
70254;BME280;57649;42.968;1.608;2023-02-18T07:59:05;98608.59;;;3.84;77.67
70254;BME280;57649;42.968;1.608;2023-02-18T08:01:30;98617.97;;;3.90;77.68
70254;BME280;57649;42.968;1.608;2023-02-18T08:03:56;98614.47;;;3.90;78.35
70254;BME280;57649;42.968;1.608;2023-02-18T08:06:27;98603.94;;;4.02;77.27
70254;BME280;57649;42.968;1.608;2023-02-18T08:08:54;98606.97;;;4.11;77.20
70254;BME280;57649;42.968;1.608;2023-02-18T08:11:20;98606.56;;;4.17;76.88
70254;BME280;57649;42.968;1.608;2023-02-18T08:13:46;98594.63;;;4.24;75.91
70254;BME280;57649;42.968;1.608;2023-02-18T08:16:13;98604.44;;;4.36;75.35
70254;BME280;57649;42.968;1.608;2023-02-18T08:18:39;98595.47;;;4.52;74.13
70254;BME280;57649;42.968;1.608;2023-02-18T08:21:04;98604.34;;;4.78;73.17
70254;BME280;57649;42.968;1.608;2023-02-18T08:23:30;98605.75;;;4.84;71.58
70254;BME280;57649;42.968;1.608;2023-02-18T08:25:56;98608.53;;;4.95;71.50
70254;BME280;57649;42.968;1.608;2023-02-18T08:28:22;98604.81;;;4.97;70.90
70254;BME280;57649;42.968;1.608;2023-02-18T08:30:49;98614.25;;;5.01;71.93
70254;BME280;57649;42.968;1.608;2023-02-18T08:33:16;98611.63;;;5.14;71.11
70254;BME280;57649;42.968;1.608;2023-02-18T08:35:42;98609.63;;;5.31;70.59
70254;BME280;57649;42.968;1.608;2023-02-18T08:38:08;98600.00;;;5.43;69.98
70254;BME280;57649;42.968;1.608;2023-02-18T08:40:33;98604.97;;;5.47;70.27
70254;BME280;57649;42.968;1.608;2023-02-18T08:42:59;98602.63;;;5.55;69.80
70254;BME280;57649;42.968;1.608;2023-02-18T08:45:24;98604.13;;;5.59;69.47
70254;BME280;57649;42.968;1.608;2023-02-18T08:47:50;98595.50;;;5.69;68.64
70254;BME280;57649;42.968;1.608;2023-02-18T08:50:16;98606.19;;;5.93;68.21
70254;BME280;57649;42.968;1.608;2023-02-18T08:52:42;98602.50;;;6.08;66.72
70254;BME280;57649;42.968;1.608;2023-02-18T08:55:07;98602.44;;;6.21;66.62
70254;BME280;57649;42.968;1.608;2023-02-18T08:57:33;98601.88;;;6.29;67.20
70254;BME280;57649;42.968;1.608;2023-02-18T08:59:58;98597.19;;;6.32;67.13
70254;BME280;57649;42.968;1.608;2023-02-18T09:02:24;98605.44;;;6.41;67.10
70254;BME280;57649;42.968;1.608;2023-02-18T09:04:49;98604.50;;;6.66;65.18
70254;BME280;57649;42.968;1.608;2023-02-18T09:07:15;98602.50;;;6.81;64.56
70254;BME280;57649;42.968;1.608;2023-02-18T09:09:40;98610.03;;;6.87;63.32
70254;BME280;57649;42.968;1.608;2023-02-18T09:12:06;98607.84;;;6.92;63.06
70254;BME280;57649;42.968;1.608;2023-02-18T09:14:32;98606.25;;;7.13;62.55
70254;BME280;57649;42.968;1.608;2023-02-18T09:16:58;98601.72;;;7.38;63.26
70254;BME280;57649;42.968;1.608;2023-02-18T09:19:24;98606.31;;;7.47;62.69
70254;BME280;57649;42.968;1.608;2023-02-18T09:21:49;98607.91;;;7.72;62.14
70254;BME280;57649;42.968;1.608;2023-02-18T09:24:18;98594.94;;;7.90;60.83
70254;BME280;57649;42.968;1.608;2023-02-18T09:26:43;98598.31;;;8.26;59.12
70254;BME280;57649;42.968;1.608;2023-02-18T09:29:09;98601.94;;;8.48;58.30
70254;BME280;57649;42.968;1.608;2023-02-18T09:31:34;98601.44;;;8.86;57.80
70254;BME280;57649;42.968;1.608;2023-02-18T09:34:01;98598.34;;;9.23;55.36
70254;BME280;57649;42.968;1.608;2023-02-18T09:36:28;98599.72;;;9.49;55.56
70254;BME280;57649;42.968;1.608;2023-02-18T09:38:53;98595.78;;;9.74;55.04
70254;BME280;57649;42.968;1.608;2023-02-18T09:41:26;98597.63;;;10.04;54.18
70254;BME280;57649;42.968;1.608;2023-02-18T09:43:57;98589.84;;;10.32;54.18
70254;BME280;57649;42.968;1.608;2023-02-18T09:46:28;98593.41;;;10.71;53.76
70254;BME280;57649;42.968;1.608;2023-02-18T09:48:55;98590.47;;;10.94;53.45
70254;BME280;57649;42.968;1.608;2023-02-18T09:51:21;98587.91;;;11.22;53.14
70254;BME280;57649;42.968;1.608;2023-02-18T09:53:46;98579.66;;;11.52;51.22
70254;BME280;57649;42.968;1.608;2023-02-18T09:56:15;98585.91;;;11.90;50.21
70254;BME280;57649;42.968;1.608;2023-02-18T09:58:42;98581.69;;;12.16;49.58
70254;BME280;57649;42.968;1.608;2023-02-18T10:03:54;98578.41;;;12.49;48.48
70254;BME280;57649;42.968;1.608;2023-02-18T10:06:25;98571.91;;;12.70;48.00
70254;BME280;57649;42.968;1.608;2023-02-18T10:08:53;98574.78;;;12.95;47.35
70254;BME280;57649;42.968;1.608;2023-02-18T10:11:29;98573.50;;;12.99;46.17
70254;BME280;57649;42.968;1.608;2023-02-18T10:13:56;98567.78;;;13.38;45.80
70254;BME280;57649;42.968;1.608;2023-02-18T10:16:23;98561.34;;;13.57;44.83
70254;BME280;57649;42.968;1.608;2023-02-18T10:19:00;98563.84;;;13.84;44.33
70254;BME280;57649;42.968;1.608;2023-02-18T10:21:32;98557.56;;;14.10;43.16
70254;BME280;57649;42.968;1.608;2023-02-18T10:24:06;98549.69;;;14.09;42.17
70254;BME280;57649;42.968;1.608;2023-02-18T10:26:36;98548.56;;;14.28;42.46
70254;BME280;57649;42.968;1.608;2023-02-18T10:29:02;98542.84;;;14.31;41.26
70254;BME280;57649;42.968;1.608;2023-02-18T10:31:35;98537.88;;;14.60;40.96
70254;BME280;57649;42.968;1.608;2023-02-18T10:36:54;98540.25;;;14.96;40.69
70254;BME280;57649;42.968;1.608;2023-02-18T10:39:33;98533.03;;;15.13;40.86
70254;BME280;57649;42.968;1.608;2023-02-18T10:44:59;98529.44;;;15.29;40.62
70254;BME280;57649;42.968;1.608;2023-02-18T10:50:25;98529.59;;;15.61;39.03
70254;BME280;57649;42.968;1.608;2023-02-18T10:52:55;98522.28;;;15.69;38.23
70254;BME280;57649;42.968;1.608;2023-02-18T10:55:43;98519.63;;;15.61;38.85
70254;BME280;57649;42.968;1.608;2023-02-18T10:58:33;98523.47;;;15.83;38.62
70254;BME280;57649;42.968;1.608;2023-02-18T11:01:03;98519.66;;;16.09;38.46
70254;BME280;57649;42.968;1.608;2023-02-18T11:06:04;98508.97;;;16.47;38.10
70254;BME280;57649;42.968;1.608;2023-02-18T11:08:44;98504.06;;;16.50;38.10
70254;BME280;57649;42.968;1.608;2023-02-18T11:11:38;98503.69;;;16.53;38.98
70254;BME280;57649;42.968;1.608;2023-02-18T11:14:06;98499.06;;;16.62;39.31
70254;BME280;57649;42.968;1.608;2023-02-18T11:16:40;98503.22;;;16.73;39.83
70254;BME280;57649;42.968;1.608;2023-02-18T11:19:42;98498.47;;;16.75;40.53
70254;BME280;57649;42.968;1.608;2023-02-18T11:22:14;98490.66;;;16.80;41.28
70254;BME280;57649;42.968;1.608;2023-02-18T11:24:43;98491.47;;;16.89;41.36
70254;BME280;57649;42.968;1.608;2023-02-18T11:27:26;98497.25;;;17.24;41.75
70254;BME280;57649;42.968;1.608;2023-02-18T11:30:13;98488.69;;;17.50;42.02
70254;BME280;57649;42.968;1.608;2023-02-18T11:32:42;98484.91;;;17.36;43.10
70254;BME280;57649;42.968;1.608;2023-02-18T11:35:17;98478.84;;;17.34;43.31
70254;BME280;57649;42.968;1.608;2023-02-18T11:37:43;98484.38;;;17.56;43.85
70254;BME280;57649;42.968;1.608;2023-02-18T11:40:33;98471.78;;;17.63;43.49
70254;BME280;57649;42.968;1.608;2023-02-18T11:43:12;98470.00;;;17.40;44.97
70254;BME280;57649;42.968;1.608;2023-02-18T11:45:39;98457.03;;;17.50;45.46
70254;BME280;57649;42.968;1.608;2023-02-18T11:50:39;98454.78;;;17.39;45.98
70254;BME280;57649;42.968;1.608;2023-02-18T11:55:54;98450.13;;;17.33;46.77
70254;BME280;57649;42.968;1.608;2023-02-18T11:58:21;98450.75;;;17.65;46.48
70254;BME280;57649;42.968;1.608;2023-02-18T12:00:48;98431.13;;;17.78;46.21
70254;BME280;57649;42.968;1.608;2023-02-18T12:05:47;98438.91;;;17.36;47.24
70254;BME280;57649;42.968;1.608;2023-02-18T12:08:19;98433.59;;;17.43;47.40
70254;BME280;57649;42.968;1.608;2023-02-18T12:10:48;98425.53;;;17.79;46.56
70254;BME280;57649;42.968;1.608;2023-02-18T12:13:36;98411.63;;;17.82;45.93
70254;BME280;57649;42.968;1.608;2023-02-18T12:22:09;98406.31;;;17.74;47.55
70254;BME280;57649;42.968;1.608;2023-02-18T12:24:47;98400.53;;;17.62;47.92
70254;BME280;57649;42.968;1.608;2023-02-18T12:27:28;98397.34;;;17.88;47.00
70254;BME280;57649;42.968;1.608;2023-02-18T12:33:27;98389.03;;;17.75;47.20
70254;BME280;57649;42.968;1.608;2023-02-18T12:36:16;98385.41;;;17.68;47.10
70254;BME280;57649;42.968;1.608;2023-02-18T12:41:35;98376.97;;;17.78;46.95
70254;BME280;57649;42.968;1.608;2023-02-18T12:50:10;98367.59;;;17.59;46.61
70254;BME280;57649;42.968;1.608;2023-02-18T13:03:31;98345.63;;;17.68;46.23
70254;BME280;57649;42.968;1.608;2023-02-18T13:06:27;98346.91;;;17.73;45.56
70254;BME280;57649;42.968;1.608;2023-02-18T13:14:20;98332.50;;;17.50;45.56
70254;BME280;57649;42.968;1.608;2023-02-18T13:16:51;98324.88;;;17.39;45.29
70254;BME280;57649;42.968;1.608;2023-02-18T13:19:26;98325.03;;;17.38;45.36
70254;BME280;57649;42.968;1.608;2023-02-18T13:22:01;98319.72;;;17.44;43.96
70254;BME280;57649;42.968;1.608;2023-02-18T13:26:59;98313.22;;;17.75;42.96
70254;BME280;57649;42.968;1.608;2023-02-18T13:29:33;98310.41;;;17.68;43.66
70254;BME280;57649;42.968;1.608;2023-02-18T13:35:51;98303.03;;;17.77;42.93
70254;BME280;57649;42.968;1.608;2023-02-18T13:40:26;98295.34;;;17.81;43.12
70254;BME280;57649;42.968;1.608;2023-02-18T13:43:28;98287.03;;;18.04;43.14
70254;BME280;57649;42.968;1.608;2023-02-18T13:46:11;98283.13;;;18.06;42.55
70254;BME280;57649;42.968;1.608;2023-02-18T13:48:45;98283.63;;;18.17;40.72
70254;BME280;57649;42.968;1.608;2023-02-18T13:51:16;98280.22;;;18.08;42.73
70254;BME280;57649;42.968;1.608;2023-02-18T13:53:49;98273.31;;;18.05;43.47
70254;BME280;57649;42.968;1.608;2023-02-18T13:58:44;98264.72;;;18.02;44.20
70254;BME280;57649;42.968;1.608;2023-02-18T14:01:20;98257.66;;;18.01;44.82
70254;BME280;57649;42.968;1.608;2023-02-18T14:08:46;98267.13;;;17.90;45.40
70254;BME280;57649;42.968;1.608;2023-02-18T14:13:43;98260.63;;;18.06;45.21
70254;BME280;57649;42.968;1.608;2023-02-18T14:16:12;98258.94;;;18.05;45.49
70254;BME280;57649;42.968;1.608;2023-02-18T14:21:17;98261.38;;;18.00;45.31
70254;BME280;57649;42.968;1.608;2023-02-18T14:24:05;98255.47;;;17.89;46.18
70254;BME280;57649;42.968;1.608;2023-02-18T14:26:36;98253.00;;;17.95;46.29
70254;BME280;57649;42.968;1.608;2023-02-18T14:29:09;98261.63;;;17.83;46.01
70254;BME280;57649;42.968;1.608;2023-02-18T14:31:49;98253.41;;;17.92;46.69
70254;BME280;57649;42.968;1.608;2023-02-18T14:45:48;98244.47;;;17.76;47.05
70254;BME280;57649;42.968;1.608;2023-02-18T14:50:45;98241.94;;;17.89;48.36
70254;BME280;57649;42.968;1.608;2023-02-18T14:53:19;98240.88;;;17.91;48.04
70254;BME280;57649;42.968;1.608;2023-02-18T14:55:52;98234.00;;;17.88;47.92
70254;BME280;57649;42.968;1.608;2023-02-18T15:01:52;98237.38;;;17.75;47.19
70254;BME280;57649;42.968;1.608;2023-02-18T15:03:52;98236.94;;;17.72;46.70
70254;BME280;57649;42.968;1.608;2023-02-18T15:06:29;98237.31;;;17.68;48.01
70254;BME280;57649;42.968;1.608;2023-02-18T15:08:56;98237.38;;;17.75;47.97
70254;BME280;57649;42.968;1.608;2023-02-18T15:11:25;98233.13;;;17.66;47.55
70254;BME280;57649;42.968;1.608;2023-02-18T15:13:55;98241.13;;;17.74;48.39
70254;BME280;57649;42.968;1.608;2023-02-18T15:16:26;98232.44;;;17.79;48.63
70254;BME280;57649;42.968;1.608;2023-02-18T15:18:57;98233.06;;;17.59;48.50
70254;BME280;57649;42.968;1.608;2023-02-18T15:21:27;98226.03;;;17.65;49.69
70254;BME280;57649;42.968;1.608;2023-02-18T15:23:53;98231.44;;;17.65;49.79
70254;BME280;57649;42.968;1.608;2023-02-18T15:26:20;98228.16;;;17.48;49.46
70254;BME280;57649;42.968;1.608;2023-02-18T15:28:59;98231.97;;;17.54;50.09
70254;BME280;57649;42.968;1.608;2023-02-18T15:31:27;98232.97;;;17.52;50.16
70254;BME280;57649;42.968;1.608;2023-02-18T15:33:53;98228.66;;;17.37;50.86